sensor_id;sensor_type;location;lat;lon;timestamp;temperature;humidity
64855;DHT22;51321;50.428;8.378;2023-06-14T00:01:20;14.30;92.10
64855;DHT22;51321;50.428;8.378;2023-06-14T00:04:01;14.20;92.30
64855;DHT22;51321;50.428;8.378;2023-06-14T00:06:42;14.20;92.30
64855;DHT22;51321;50.428;8.378;2023-06-14T00:09:25;14.40;92.00
64855;DHT22;51321;50.428;8.378;2023-06-14T00:12:07;14.70;91.70
64855;DHT22;51321;50.428;8.378;2023-06-14T00:14:47;14.50;92.20
64855;DHT22;51321;50.428;8.378;2023-06-14T00:17:28;14.10;92.90
64855;DHT22;51321;50.428;8.378;2023-06-14T00:20:11;14.00;93.00
64855;DHT22;51321;50.428;8.378;2023-06-14T00:22:51;14.00;93.30
64855;DHT22;51321;50.428;8.378;2023-06-14T00:25:37;13.90;93.50
64855;DHT22;51321;50.428;8.378;2023-06-14T00:28:17;13.90;93.20
64855;DHT22;51321;50.428;8.378;2023-06-14T00:30:58;14.10;92.90
64855;DHT22;51321;50.428;8.378;2023-06-14T00:33:41;14.10;92.90
64855;DHT22;51321;50.428;8.378;2023-06-14T00:36:22;14.10;93.00
64855;DHT22;51321;50.428;8.378;2023-06-14T00:39:02;13.90;93.30
64855;DHT22;51321;50.428;8.378;2023-06-14T00:41:45;13.80;93.90
64855;DHT22;51321;50.428;8.378;2023-06-14T00:44:26;13.90;93.80
64855;DHT22;51321;50.428;8.378;2023-06-14T00:47:06;13.80;93.80
64855;DHT22;51321;50.428;8.378;2023-06-14T00:49:48;13.70;94.10
64855;DHT22;51321;50.428;8.378;2023-06-14T00:52:30;13.50;94.60
64855;DHT22;51321;50.428;8.378;2023-06-14T00:55:11;13.40;95.00
64855;DHT22;51321;50.428;8.378;2023-06-14T00:57:54;13.20;95.60
64855;DHT22;51321;50.428;8.378;2023-06-14T01:00:35;13.30;95.30
64855;DHT22;51321;50.428;8.378;2023-06-14T01:03:16;13.40;95.30
64855;DHT22;51321;50.428;8.378;2023-06-14T01:06:18;13.40;95.10
64855;DHT22;51321;50.428;8.378;2023-06-14T01:09:12;13.60;94.80
64855;DHT22;51321;50.428;8.378;2023-06-14T01:12:00;13.50;95.20
64855;DHT22;51321;50.428;8.378;2023-06-14T01:14:44;13.70;94.90
64855;DHT22;51321;50.428;8.378;2023-06-14T01:17:26;13.60;95.00
64855;DHT22;51321;50.428;8.378;2023-06-14T01:20:12;13.30;95.90
64855;DHT22;51321;50.428;8.378;2023-06-14T01:22:55;13.20;96.00
64855;DHT22;51321;50.428;8.378;2023-06-14T01:25:36;13.10;96.20
64855;DHT22;51321;50.428;8.378;2023-06-14T01:28:21;13.30;95.70
64855;DHT22;51321;50.428;8.378;2023-06-14T01:31:03;13.20;96.20
64855;DHT22;51321;50.428;8.378;2023-06-14T01:33:46;13.20;96.20
64855;DHT22;51321;50.428;8.378;2023-06-14T01:36:29;13.10;96.40
64855;DHT22;51321;50.428;8.378;2023-06-14T01:39:13;13.20;96.30
64855;DHT22;51321;50.428;8.378;2023-06-14T01:41:54;13.20;96.10
64855;DHT22;51321;50.428;8.378;2023-06-14T01:44:37;13.00;96.80
64855;DHT22;51321;50.428;8.378;2023-06-14T01:47:18;13.10;96.70
64855;DHT22;51321;50.428;8.378;2023-06-14T01:50:02;13.10;96.70
64855;DHT22;51321;50.428;8.378;2023-06-14T01:52:44;13.20;96.50
64855;DHT22;51321;50.428;8.378;2023-06-14T01:55:26;13.10;96.60
64855;DHT22;51321;50.428;8.378;2023-06-14T01:58:07;13.00;96.80
64855;DHT22;51321;50.428;8.378;2023-06-14T02:00:47;12.90;96.80
64855;DHT22;51321;50.428;8.378;2023-06-14T02:03:28;12.90;96.90
64855;DHT22;51321;50.428;8.378;2023-06-14T02:06:09;12.70;97.40
64855;DHT22;51321;50.428;8.378;2023-06-14T02:08:52;12.70;97.20
64855;DHT22;51321;50.428;8.378;2023-06-14T02:11:34;12.70;97.30
64855;DHT22;51321;50.428;8.378;2023-06-14T02:14:15;12.90;97.10
64855;DHT22;51321;50.428;8.378;2023-06-14T02:16:56;12.80;97.20
64855;DHT22;51321;50.428;8.378;2023-06-14T02:19:37;12.80;97.30
64855;DHT22;51321;50.428;8.378;2023-06-14T02:22:18;12.70;97.30
64855;DHT22;51321;50.428;8.378;2023-06-14T02:25:01;12.70;97.50
64855;DHT22;51321;50.428;8.378;2023-06-14T02:27:43;12.70;97.20
64855;DHT22;51321;50.428;8.378;2023-06-14T02:30:23;12.70;97.40
64855;DHT22;51321;50.428;8.378;2023-06-14T02:33:04;12.60;97.60
64855;DHT22;51321;50.428;8.378;2023-06-14T02:35:45;12.60;97.60
64855;DHT22;51321;50.428;8.378;2023-06-14T02:38:26;12.50;97.60
64855;DHT22;51321;50.428;8.378;2023-06-14T02:41:07;12.40;98.00
64855;DHT22;51321;50.428;8.378;2023-06-14T02:43:49;12.40;98.00
64855;DHT22;51321;50.428;8.378;2023-06-14T02:46:30;12.50;98.00
64855;DHT22;51321;50.428;8.378;2023-06-14T02:49:12;12.50;97.90
64855;DHT22;51321;50.428;8.378;2023-06-14T02:51:53;12.30;98.20
64855;DHT22;51321;50.428;8.378;2023-06-14T02:54:33;12.30;98.50
64855;DHT22;51321;50.428;8.378;2023-06-14T02:57:15;12.20;98.60
64855;DHT22;51321;50.428;8.378;2023-06-14T02:59:57;12.20;98.50
64855;DHT22;51321;50.428;8.378;2023-06-14T03:02:38;12.10;98.70
64855;DHT22;51321;50.428;8.378;2023-06-14T03:05:19;12.20;98.70
64855;DHT22;51321;50.428;8.378;2023-06-14T03:08:01;12.30;98.40
64855;DHT22;51321;50.428;8.378;2023-06-14T03:10:42;12.20;98.60
64855;DHT22;51321;50.428;8.378;2023-06-14T03:13:24;12.20;98.60
64855;DHT22;51321;50.428;8.378;2023-06-14T03:16:08;12.10;98.90
64855;DHT22;51321;50.428;8.378;2023-06-14T03:18:52;12.20;98.70
64855;DHT22;51321;50.428;8.378;2023-06-14T03:21:33;12.20;98.60
64855;DHT22;51321;50.428;8.378;2023-06-14T03:24:16;12.20;98.60
64855;DHT22;51321;50.428;8.378;2023-06-14T03:26:57;12.30;98.50
64855;DHT22;51321;50.428;8.378;2023-06-14T03:29:40;12.20;98.80
64855;DHT22;51321;50.428;8.378;2023-06-14T03:32:22;12.20;98.60
64855;DHT22;51321;50.428;8.378;2023-06-14T03:35:03;12.30;98.60
64855;DHT22;51321;50.428;8.378;2023-06-14T03:37:44;12.30;98.60
64855;DHT22;51321;50.428;8.378;2023-06-14T03:40:25;12.20;98.90
64855;DHT22;51321;50.428;8.378;2023-06-14T03:43:13;12.20;98.90
64855;DHT22;51321;50.428;8.378;2023-06-14T03:45:54;12.20;98.80
64855;DHT22;51321;50.428;8.378;2023-06-14T03:48:37;12.20;99.00
64855;DHT22;51321;50.428;8.378;2023-06-14T03:51:20;12.20;99.00
64855;DHT22;51321;50.428;8.378;2023-06-14T03:54:02;12.30;99.00
64855;DHT22;51321;50.428;8.378;2023-06-14T03:56:43;12.60;98.50
64855;DHT22;51321;50.428;8.378;2023-06-14T03:59:26;12.90;98.30
64855;DHT22;51321;50.428;8.378;2023-06-14T04:02:06;13.10;97.60
64855;DHT22;51321;50.428;8.378;2023-06-14T04:04:50;13.10;97.50
64855;DHT22;51321;50.428;8.378;2023-06-14T04:07:31;13.20;97.50
64855;DHT22;51321;50.428;8.378;2023-06-14T04:10:12;13.20;97.80
64855;DHT22;51321;50.428;8.378;2023-06-14T04:12:53;13.10;97.80
64855;DHT22;51321;50.428;8.378;2023-06-14T04:15:35;13.20;97.90
64855;DHT22;51321;50.428;8.378;2023-06-14T04:18:17;13.30;97.50
64855;DHT22;51321;50.428;8.378;2023-06-14T04:21:00;13.40;97.30
64855;DHT22;51321;50.428;8.378;2023-06-14T04:23:42;13.50;96.90
64855;DHT22;51321;50.428;8.378;2023-06-14T04:26:23;13.60;96.60
64855;DHT22;51321;50.428;8.378;2023-06-14T04:29:09;13.70;96.70
64855;DHT22;51321;50.428;8.378;2023-06-14T04:31:55;13.80;96.60
64855;DHT22;51321;50.428;8.378;2023-06-14T04:34:39;13.90;96.40
64855;DHT22;51321;50.428;8.378;2023-06-14T04:37:23;13.90;96.50
64855;DHT22;51321;50.428;8.378;2023-06-14T04:40:04;14.00;95.90
64855;DHT22;51321;50.428;8.378;2023-06-14T04:42:46;14.00;96.70
64855;DHT22;51321;50.428;8.378;2023-06-14T04:45:29;14.20;96.10
64855;DHT22;51321;50.428;8.378;2023-06-14T04:48:11;14.00;96.20
64855;DHT22;51321;50.428;8.378;2023-06-14T04:50:52;14.20;96.30
64855;DHT22;51321;50.428;8.378;2023-06-14T04:53:35;14.30;96.30
64855;DHT22;51321;50.428;8.378;2023-06-14T04:56:16;14.50;96.10
64855;DHT22;51321;50.428;8.378;2023-06-14T04:58:57;14.60;95.80
64855;DHT22;51321;50.428;8.378;2023-06-14T05:01:37;14.70;95.80
64855;DHT22;51321;50.428;8.378;2023-06-14T05:04:19;14.80;95.90
64855;DHT22;51321;50.428;8.378;2023-06-14T05:07:00;14.80;95.80
64855;DHT22;51321;50.428;8.378;2023-06-14T05:09:44;15.10;95.60
64855;DHT22;51321;50.428;8.378;2023-06-14T05:12:25;15.40;95.50
64855;DHT22;51321;50.428;8.378;2023-06-14T05:15:07;15.60;94.30
64855;DHT22;51321;50.428;8.378;2023-06-14T05:17:49;15.90;93.60
64855;DHT22;51321;50.428;8.378;2023-06-14T05:20:33;16.20;93.40
64855;DHT22;51321;50.428;8.378;2023-06-14T05:23:16;16.40;93.80
64855;DHT22;51321;50.428;8.378;2023-06-14T05:25:59;16.60;92.60
64855;DHT22;51321;50.428;8.378;2023-06-14T05:28:42;16.80;92.20
64855;DHT22;51321;50.428;8.378;2023-06-14T05:31:23;16.90;92.80
64855;DHT22;51321;50.428;8.378;2023-06-14T05:34:05;17.00;91.00
64855;DHT22;51321;50.428;8.378;2023-06-14T05:36:45;16.90;90.90
64855;DHT22;51321;50.428;8.378;2023-06-14T05:39:26;16.70;91.30
64855;DHT22;51321;50.428;8.378;2023-06-14T05:42:08;16.70;91.60
64855;DHT22;51321;50.428;8.378;2023-06-14T05:44:49;16.80;91.30
64855;DHT22;51321;50.428;8.378;2023-06-14T05:47:29;16.90;90.90
64855;DHT22;51321;50.428;8.378;2023-06-14T05:50:10;16.90;91.30
64855;DHT22;51321;50.428;8.378;2023-06-14T05:52:50;16.90;91.50
64855;DHT22;51321;50.428;8.378;2023-06-14T05:55:31;16.70;91.10
64855;DHT22;51321;50.428;8.378;2023-06-14T05:58:13;16.70;91.10
64855;DHT22;51321;50.428;8.378;2023-06-14T06:00:54;16.70;91.30
64855;DHT22;51321;50.428;8.378;2023-06-14T06:03:38;17.00;91.50
64855;DHT22;51321;50.428;8.378;2023-06-14T06:06:18;17.30;90.80
64855;DHT22;51321;50.428;8.378;2023-06-14T06:08:59;17.70;91.20
64855;DHT22;51321;50.428;8.378;2023-06-14T06:11:40;17.90;89.60
64855;DHT22;51321;50.428;8.378;2023-06-14T06:14:22;18.00;89.10
64855;DHT22;51321;50.428;8.378;2023-06-14T06:17:03;17.90;89.30
64855;DHT22;51321;50.428;8.378;2023-06-14T06:19:44;17.90;90.50
64855;DHT22;51321;50.428;8.378;2023-06-14T06:22:25;18.00;89.70
64855;DHT22;51321;50.428;8.378;2023-06-14T06:25:07;18.00;90.00
64855;DHT22;51321;50.428;8.378;2023-06-14T06:27:48;18.00;88.80
64855;DHT22;51321;50.428;8.378;2023-06-14T06:30:30;17.90;90.10
64855;DHT22;51321;50.428;8.378;2023-06-14T06:33:10;18.10;89.40
64855;DHT22;51321;50.428;8.378;2023-06-14T06:35:52;18.00;88.80
64855;DHT22;51321;50.428;8.378;2023-06-14T06:38:33;17.90;90.20
64855;DHT22;51321;50.428;8.378;2023-06-14T06:41:14;18.00;88.10
64855;DHT22;51321;50.428;8.378;2023-06-14T06:43:55;18.00;88.20
64855;DHT22;51321;50.428;8.378;2023-06-14T06:46:43;18.00;88.00
64855;DHT22;51321;50.428;8.378;2023-06-14T06:49:24;18.00;87.80
64855;DHT22;51321;50.428;8.378;2023-06-14T06:52:06;18.10;88.10
64855;DHT22;51321;50.428;8.378;2023-06-14T06:54:47;18.40;88.40
64855;DHT22;51321;50.428;8.378;2023-06-14T06:57:31;18.60;88.40
64855;DHT22;51321;50.428;8.378;2023-06-14T07:00:12;18.50;87.90
64855;DHT22;51321;50.428;8.378;2023-06-14T07:02:54;18.70;87.60
64855;DHT22;51321;50.428;8.378;2023-06-14T07:05:36;18.90;87.00
64855;DHT22;51321;50.428;8.378;2023-06-14T07:08:17;18.80;86.00
64855;DHT22;51321;50.428;8.378;2023-06-14T07:10:58;18.80;87.50
64855;DHT22;51321;50.428;8.378;2023-06-14T07:13:38;19.00;87.10
64855;DHT22;51321;50.428;8.378;2023-06-14T07:16:19;18.80;85.40
64855;DHT22;51321;50.428;8.378;2023-06-14T07:19:01;18.90;85.50
64855;DHT22;51321;50.428;8.378;2023-06-14T07:21:42;19.00;85.30
64855;DHT22;51321;50.428;8.378;2023-06-14T07:24:23;19.20;86.20
64855;DHT22;51321;50.428;8.378;2023-06-14T07:27:04;19.30;84.70
64855;DHT22;51321;50.428;8.378;2023-06-14T07:29:45;19.40;84.30
64855;DHT22;51321;50.428;8.378;2023-06-14T07:32:26;19.70;85.70
64855;DHT22;51321;50.428;8.378;2023-06-14T07:35:08;19.70;84.20
64855;DHT22;51321;50.428;8.378;2023-06-14T07:37:48;19.70;82.90
64855;DHT22;51321;50.428;8.378;2023-06-14T07:40:29;19.60;84.80
64855;DHT22;51321;50.428;8.378;2023-06-14T07:43:10;19.70;84.20
64855;DHT22;51321;50.428;8.378;2023-06-14T07:45:50;19.80;84.10
64855;DHT22;51321;50.428;8.378;2023-06-14T07:48:31;19.90;84.40
64855;DHT22;51321;50.428;8.378;2023-06-14T07:51:14;19.70;82.30
64855;DHT22;51321;50.428;8.378;2023-06-14T07:53:55;19.40;83.50
64855;DHT22;51321;50.428;8.378;2023-06-14T07:56:36;19.40;85.00
64855;DHT22;51321;50.428;8.378;2023-06-14T07:59:16;19.40;84.90
64855;DHT22;51321;50.428;8.378;2023-06-14T08:01:57;19.40;83.30
64855;DHT22;51321;50.428;8.378;2023-06-14T08:04:38;19.70;82.80
64855;DHT22;51321;50.428;8.378;2023-06-14T08:07:20;19.60;82.50
64855;DHT22;51321;50.428;8.378;2023-06-14T08:10:02;19.60;82.00
64855;DHT22;51321;50.428;8.378;2023-06-14T08:12:42;19.90;82.50
64855;DHT22;51321;50.428;8.378;2023-06-14T08:15:23;19.80;81.30
64855;DHT22;51321;50.428;8.378;2023-06-14T08:18:04;19.80;80.50
64855;DHT22;51321;50.428;8.378;2023-06-14T08:20:45;19.80;81.30
64855;DHT22;51321;50.428;8.378;2023-06-14T08:23:27;19.80;81.30
64855;DHT22;51321;50.428;8.378;2023-06-14T08:26:08;20.10;80.40
64855;DHT22;51321;50.428;8.378;2023-06-14T08:28:49;20.30;80.80
64855;DHT22;51321;50.428;8.378;2023-06-14T08:31:30;20.50;80.80
64855;DHT22;51321;50.428;8.378;2023-06-14T08:34:11;20.40;78.40
64855;DHT22;51321;50.428;8.378;2023-06-14T08:36:52;20.30;78.60
64855;DHT22;51321;50.428;8.378;2023-06-14T08:39:33;19.90;77.70
64855;DHT22;51321;50.428;8.378;2023-06-14T08:42:14;19.90;79.00
64855;DHT22;51321;50.428;8.378;2023-06-14T08:44:56;19.80;81.00
64855;DHT22;51321;50.428;8.378;2023-06-14T08:47:36;19.70;77.10
64855;DHT22;51321;50.428;8.378;2023-06-14T08:50:19;19.80;77.40
64855;DHT22;51321;50.428;8.378;2023-06-14T08:53:01;20.00;76.80
64855;DHT22;51321;50.428;8.378;2023-06-14T08:55:44;20.00;77.10
64855;DHT22;51321;50.428;8.378;2023-06-14T08:58:25;19.80;77.10
64855;DHT22;51321;50.428;8.378;2023-06-14T09:01:08;19.90;79.50
64855;DHT22;51321;50.428;8.378;2023-06-14T09:03:51;20.30;77.40
64855;DHT22;51321;50.428;8.378;2023-06-14T09:06:34;20.70;77.80
64855;DHT22;51321;50.428;8.378;2023-06-14T09:09:16;20.40;76.40
64855;DHT22;51321;50.428;8.378;2023-06-14T09:11:58;20.10;77.70
64855;DHT22;51321;50.428;8.378;2023-06-14T09:14:39;20.10;77.00
64855;DHT22;51321;50.428;8.378;2023-06-14T09:17:23;20.20;78.50
64855;DHT22;51321;50.428;8.378;2023-06-14T09:20:05;20.50;77.40
64855;DHT22;51321;50.428;8.378;2023-06-14T09:22:49;20.50;76.70
64855;DHT22;51321;50.428;8.378;2023-06-14T09:25:30;20.40;77.00
64855;DHT22;51321;50.428;8.378;2023-06-14T09:28:12;20.30;77.00
64855;DHT22;51321;50.428;8.378;2023-06-14T09:30:53;20.30;75.70
64855;DHT22;51321;50.428;8.378;2023-06-14T09:33:34;20.30;74.60
64855;DHT22;51321;50.428;8.378;2023-06-14T09:36:15;20.40;74.80
64855;DHT22;51321;50.428;8.378;2023-06-14T09:38:58;20.40;73.50
64855;DHT22;51321;50.428;8.378;2023-06-14T09:41:40;20.50;75.30
64855;DHT22;51321;50.428;8.378;2023-06-14T09:44:25;20.80;75.60
64855;DHT22;51321;50.428;8.378;2023-06-14T09:47:08;20.60;75.10
64855;DHT22;51321;50.428;8.378;2023-06-14T09:49:49;20.80;75.00
64855;DHT22;51321;50.428;8.378;2023-06-14T09:52:31;20.90;74.40
64855;DHT22;51321;50.428;8.378;2023-06-14T09:55:12;20.90;75.30
64855;DHT22;51321;50.428;8.378;2023-06-14T09:57:54;21.10;75.30
64855;DHT22;51321;50.428;8.378;2023-06-14T10:00:39;20.90;74.00
64855;DHT22;51321;50.428;8.378;2023-06-14T10:03:24;20.70;75.00
64855;DHT22;51321;50.428;8.378;2023-06-14T10:06:07;20.70;75.80
64855;DHT22;51321;50.428;8.378;2023-06-14T10:08:49;21.00;75.30
64855;DHT22;51321;50.428;8.378;2023-06-14T10:11:31;21.40;74.20
64855;DHT22;51321;50.428;8.378;2023-06-14T10:14:13;21.50;73.30
64855;DHT22;51321;50.428;8.378;2023-06-14T10:16:59;21.20;73.60
64855;DHT22;51321;50.428;8.378;2023-06-14T10:19:46;21.30;75.60
64855;DHT22;51321;50.428;8.378;2023-06-14T10:22:35;21.20;73.10
64855;DHT22;51321;50.428;8.378;2023-06-14T10:25:28;20.90;74.50
64855;DHT22;51321;50.428;8.378;2023-06-14T10:28:17;21.30;74.40
64855;DHT22;51321;50.428;8.378;2023-06-14T10:31:03;21.20;72.20
64855;DHT22;51321;50.428;8.378;2023-06-14T10:33:52;20.50;73.10
64855;DHT22;51321;50.428;8.378;2023-06-14T10:36:35;20.30;74.10
64855;DHT22;51321;50.428;8.378;2023-06-14T10:39:17;20.30;75.00
64855;DHT22;51321;50.428;8.378;2023-06-14T10:42:02;20.40;75.70
64855;DHT22;51321;50.428;8.378;2023-06-14T10:44:45;20.80;75.40
64855;DHT22;51321;50.428;8.378;2023-06-14T10:47:28;21.30;76.00
64855;DHT22;51321;50.428;8.378;2023-06-14T10:50:11;21.50;72.00
64855;DHT22;51321;50.428;8.378;2023-06-14T10:52:57;21.60;72.80
64855;DHT22;51321;50.428;8.378;2023-06-14T10:55:38;21.60;72.30
64855;DHT22;51321;50.428;8.378;2023-06-14T10:58:19;21.50;71.90
64855;DHT22;51321;50.428;8.378;2023-06-14T11:00:59;21.10;72.00
64855;DHT22;51321;50.428;8.378;2023-06-14T11:03:50;20.70;74.30
64855;DHT22;51321;50.428;8.378;2023-06-14T11:06:48;20.60;74.70
64855;DHT22;51321;50.428;8.378;2023-06-14T11:09:58;21.50;73.50
64855;DHT22;51321;50.428;8.378;2023-06-14T11:12:47;22.20;71.10
64855;DHT22;51321;50.428;8.378;2023-06-14T11:15:28;21.90;71.00
64855;DHT22;51321;50.428;8.378;2023-06-14T11:18:09;21.30;72.80
64855;DHT22;51321;50.428;8.378;2023-06-14T11:20:50;21.30;73.00
64855;DHT22;51321;50.428;8.378;2023-06-14T11:23:32;21.00;72.90
64855;DHT22;51321;50.428;8.378;2023-06-14T11:26:13;21.40;72.00
64855;DHT22;51321;50.428;8.378;2023-06-14T11:28:58;21.80;71.20
64855;DHT22;51321;50.428;8.378;2023-06-14T11:31:43;22.10;69.90
64855;DHT22;51321;50.428;8.378;2023-06-14T11:34:24;22.50;70.60
64855;DHT22;51321;50.428;8.378;2023-06-14T11:37:05;22.90;69.00
64855;DHT22;51321;50.428;8.378;2023-06-14T11:39:47;22.80;69.50
64855;DHT22;51321;50.428;8.378;2023-06-14T11:42:28;22.60;69.30
64855;DHT22;51321;50.428;8.378;2023-06-14T11:45:10;22.60;70.90
64855;DHT22;51321;50.428;8.378;2023-06-14T11:47:51;22.50;69.20
64855;DHT22;51321;50.428;8.378;2023-06-14T11:50:32;22.30;69.00
64855;DHT22;51321;50.428;8.378;2023-06-14T11:53:12;22.10;71.50
64855;DHT22;51321;50.428;8.378;2023-06-14T11:55:57;22.60;70.50
64855;DHT22;51321;50.428;8.378;2023-06-14T11:58:38;22.30;69.10
64855;DHT22;51321;50.428;8.378;2023-06-14T12:01:22;22.20;69.90
64855;DHT22;51321;50.428;8.378;2023-06-14T12:04:05;22.20;72.70
64855;DHT22;51321;50.428;8.378;2023-06-14T12:06:45;22.40;70.10
64855;DHT22;51321;50.428;8.378;2023-06-14T12:09:28;22.90;68.50
64855;DHT22;51321;50.428;8.378;2023-06-14T12:12:12;23.10;68.60
64855;DHT22;51321;50.428;8.378;2023-06-14T12:14:54;22.60;69.30
64855;DHT22;51321;50.428;8.378;2023-06-14T12:17:37;22.20;70.30
64855;DHT22;51321;50.428;8.378;2023-06-14T12:20:21;22.10;71.40
64855;DHT22;51321;50.428;8.378;2023-06-14T12:23:03;21.90;72.30
64855;DHT22;51321;50.428;8.378;2023-06-14T12:25:44;21.90;72.50
64855;DHT22;51321;50.428;8.378;2023-06-14T12:28:31;22.10;70.50
64855;DHT22;51321;50.428;8.378;2023-06-14T12:31:13;22.30;71.30
64855;DHT22;51321;50.428;8.378;2023-06-14T12:33:54;22.30;71.10
64855;DHT22;51321;50.428;8.378;2023-06-14T12:36:35;22.40;71.40
64855;DHT22;51321;50.428;8.378;2023-06-14T12:39:21;22.60;70.60
64855;DHT22;51321;50.428;8.378;2023-06-14T12:42:02;22.80;69.30
64855;DHT22;51321;50.428;8.378;2023-06-14T12:44:45;22.60;68.60
64855;DHT22;51321;50.428;8.378;2023-06-14T12:47:25;22.60;69.90
64855;DHT22;51321;50.428;8.378;2023-06-14T12:50:07;22.40;69.00
64855;DHT22;51321;50.428;8.378;2023-06-14T12:52:48;21.90;70.10
64855;DHT22;51321;50.428;8.378;2023-06-14T12:55:28;21.70;70.40
64855;DHT22;51321;50.428;8.378;2023-06-14T12:58:09;21.90;70.50
64855;DHT22;51321;50.428;8.378;2023-06-14T13:00:53;22.30;68.90
64855;DHT22;51321;50.428;8.378;2023-06-14T13:03:34;22.50;68.70
64855;DHT22;51321;50.428;8.378;2023-06-14T13:06:14;22.90;68.60
64855;DHT22;51321;50.428;8.378;2023-06-14T13:08:55;23.20;69.30
64855;DHT22;51321;50.428;8.378;2023-06-14T13:11:37;23.10;70.30
64855;DHT22;51321;50.428;8.378;2023-06-14T13:14:18;22.70;68.60
64855;DHT22;51321;50.428;8.378;2023-06-14T13:17:00;22.30;68.30
64855;DHT22;51321;50.428;8.378;2023-06-14T13:19:40;22.10;70.20
64855;DHT22;51321;50.428;8.378;2023-06-14T13:22:22;22.40;72.10
64855;DHT22;51321;50.428;8.378;2023-06-14T13:25:04;22.80;70.70
64855;DHT22;51321;50.428;8.378;2023-06-14T13:27:45;23.10;68.80
64855;DHT22;51321;50.428;8.378;2023-06-14T13:30:25;23.20;68.40
64855;DHT22;51321;50.428;8.378;2023-06-14T13:33:07;22.60;67.80
64855;DHT22;51321;50.428;8.378;2023-06-14T13:35:48;22.40;69.00
64855;DHT22;51321;50.428;8.378;2023-06-14T13:38:28;22.30;70.10
64855;DHT22;51321;50.428;8.378;2023-06-14T13:41:09;22.40;70.50
64855;DHT22;51321;50.428;8.378;2023-06-14T13:43:50;22.90;70.00
64855;DHT22;51321;50.428;8.378;2023-06-14T13:46:30;23.70;67.60
64855;DHT22;51321;50.428;8.378;2023-06-14T13:49:13;24.40;67.40
64855;DHT22;51321;50.428;8.378;2023-06-14T13:51:54;24.50;65.90
64855;DHT22;51321;50.428;8.378;2023-06-14T13:54:34;24.60;66.60
64855;DHT22;51321;50.428;8.378;2023-06-14T13:57:16;24.90;66.60
64855;DHT22;51321;50.428;8.378;2023-06-14T13:59:57;24.80;66.10
64855;DHT22;51321;50.428;8.378;2023-06-14T14:02:40;24.30;65.40
64855;DHT22;51321;50.428;8.378;2023-06-14T14:05:23;24.30;64.40
64855;DHT22;51321;50.428;8.378;2023-06-14T14:08:08;24.30;64.90
64855;DHT22;51321;50.428;8.378;2023-06-14T14:10:48;24.40;63.70
64855;DHT22;51321;50.428;8.378;2023-06-14T14:13:29;23.90;64.90
64855;DHT22;51321;50.428;8.378;2023-06-14T14:16:10;23.20;66.50
64855;DHT22;51321;50.428;8.378;2023-06-14T14:18:51;22.90;67.30
64855;DHT22;51321;50.428;8.378;2023-06-14T14:21:33;22.40;67.80
64855;DHT22;51321;50.428;8.378;2023-06-14T14:24:14;22.40;68.20
64855;DHT22;51321;50.428;8.378;2023-06-14T14:26:55;22.80;68.20
64855;DHT22;51321;50.428;8.378;2023-06-14T14:29:38;23.00;67.90
64855;DHT22;51321;50.428;8.378;2023-06-14T14:32:19;23.40;66.60
64855;DHT22;51321;50.428;8.378;2023-06-14T14:35:00;24.10;65.60
64855;DHT22;51321;50.428;8.378;2023-06-14T14:37:41;24.80;64.50
64855;DHT22;51321;50.428;8.378;2023-06-14T14:40:22;25.40;62.70
64855;DHT22;51321;50.428;8.378;2023-06-14T14:43:03;25.30;63.10
64855;DHT22;51321;50.428;8.378;2023-06-14T14:45:44;25.10;62.30
64855;DHT22;51321;50.428;8.378;2023-06-14T14:48:25;24.70;63.60
64855;DHT22;51321;50.428;8.378;2023-06-14T14:51:05;23.80;64.20
64855;DHT22;51321;50.428;8.378;2023-06-14T14:53:47;23.30;66.40
64855;DHT22;51321;50.428;8.378;2023-06-14T14:56:28;23.10;66.80
64855;DHT22;51321;50.428;8.378;2023-06-14T14:59:09;22.90;66.10
64855;DHT22;51321;50.428;8.378;2023-06-14T15:01:49;22.60;67.20
64855;DHT22;51321;50.428;8.378;2023-06-14T15:04:30;22.40;67.30
64855;DHT22;51321;50.428;8.378;2023-06-14T15:07:10;22.30;67.40
64855;DHT22;51321;50.428;8.378;2023-06-14T15:09:52;22.30;68.70
64855;DHT22;51321;50.428;8.378;2023-06-14T15:12:32;22.30;68.70
64855;DHT22;51321;50.428;8.378;2023-06-14T15:15:13;23.70;66.80
64855;DHT22;51321;50.428;8.378;2023-06-14T15:17:54;25.00;64.10
64855;DHT22;51321;50.428;8.378;2023-06-14T15:20:35;25.80;61.90
64855;DHT22;51321;50.428;8.378;2023-06-14T15:23:16;26.70;61.00
64855;DHT22;51321;50.428;8.378;2023-06-14T15:26:00;27.30;60.70
64855;DHT22;51321;50.428;8.378;2023-06-14T15:28:41;28.00;59.40
64855;DHT22;51321;50.428;8.378;2023-06-14T15:31:21;27.90;58.50
64855;DHT22;51321;50.428;8.378;2023-06-14T15:34:05;27.40;59.10
64855;DHT22;51321;50.428;8.378;2023-06-14T15:36:46;27.60;58.70
64855;DHT22;51321;50.428;8.378;2023-06-14T15:39:27;27.50;58.10
64855;DHT22;51321;50.428;8.378;2023-06-14T15:42:11;27.20;57.70
64855;DHT22;51321;50.428;8.378;2023-06-14T15:44:52;25.90;59.40
64855;DHT22;51321;50.428;8.378;2023-06-14T15:47:32;24.60;61.20
64855;DHT22;51321;50.428;8.378;2023-06-14T15:50:13;23.70;63.40
64855;DHT22;51321;50.428;8.378;2023-06-14T15:52:54;23.30;64.50
64855;DHT22;51321;50.428;8.378;2023-06-14T15:55:35;23.10;65.10
64855;DHT22;51321;50.428;8.378;2023-06-14T15:58:17;22.90;64.60
64855;DHT22;51321;50.428;8.378;2023-06-14T16:00:57;22.80;65.30
64855;DHT22;51321;50.428;8.378;2023-06-14T16:03:38;22.70;65.00
64855;DHT22;51321;50.428;8.378;2023-06-14T16:06:19;22.70;65.50
64855;DHT22;51321;50.428;8.378;2023-06-14T16:08:59;23.00;65.20
64855;DHT22;51321;50.428;8.378;2023-06-14T16:11:42;23.20;64.80
64855;DHT22;51321;50.428;8.378;2023-06-14T16:14:24;23.20;65.50
64855;DHT22;51321;50.428;8.378;2023-06-14T16:17:05;23.30;64.00
64855;DHT22;51321;50.428;8.378;2023-06-14T16:19:46;23.20;64.30
64855;DHT22;51321;50.428;8.378;2023-06-14T16:22:27;22.90;63.50
64855;DHT22;51321;50.428;8.378;2023-06-14T16:25:08;22.70;63.90
64855;DHT22;51321;50.428;8.378;2023-06-14T16:27:49;22.70;64.60
64855;DHT22;51321;50.428;8.378;2023-06-14T16:30:31;22.80;65.70
64855;DHT22;51321;50.428;8.378;2023-06-14T16:33:12;22.90;64.90
64855;DHT22;51321;50.428;8.378;2023-06-14T16:35:52;22.90;64.00
64855;DHT22;51321;50.428;8.378;2023-06-14T16:38:33;23.00;65.20
64855;DHT22;51321;50.428;8.378;2023-06-14T16:41:14;23.00;64.40
64855;DHT22;51321;50.428;8.378;2023-06-14T16:43:55;22.90;63.80
64855;DHT22;51321;50.428;8.378;2023-06-14T16:46:38;22.70;64.10
64855;DHT22;51321;50.428;8.378;2023-06-14T16:49:19;22.60;64.50
64855;DHT22;51321;50.428;8.378;2023-06-14T16:51:59;22.70;64.40
64855;DHT22;51321;50.428;8.378;2023-06-14T16:54:40;22.70;64.20
64855;DHT22;51321;50.428;8.378;2023-06-14T16:57:21;22.70;63.90
64855;DHT22;51321;50.428;8.378;2023-06-14T17:00:02;22.60;63.70
64855;DHT22;51321;50.428;8.378;2023-06-14T17:02:44;22.50;64.40